createdAt,value
2023-10-27T00:01:12.599Z,65.78
2023-10-27T00:04:15.058Z,65.97
2023-10-27T00:07:17.729Z,65.49
2023-10-27T00:10:20.364Z,65.60
2023-10-27T00:13:22.901Z,65.42
2023-10-27T00:16:25.396Z,65.37
2023-10-27T00:19:27.802Z,65.29
2023-10-27T00:22:31.404Z,65.21
2023-10-27T00:25:33.840Z,65.54
2023-10-27T00:28:36.334Z,65.89
2023-10-27T00:31:38.729Z,65.46
2023-10-27T00:34:41.237Z,65.94
2023-10-27T00:37:43.887Z,65.42
2023-10-27T00:40:46.791Z,65.03
2023-10-27T00:43:49.172Z,65.59
2023-10-27T00:46:52.366Z,65.34
2023-10-27T00:49:55.966Z,66.00
2023-10-27T00:52:58.519Z,65.36
2023-10-27T00:56:00.989Z,65.14
2023-10-27T00:59:03.459Z,65.37
2023-10-27T01:02:06.013Z,65.24
2023-10-27T01:05:10.111Z,65.89
2023-10-27T01:08:12.676Z,65.68
2023-10-27T01:11:15.945Z,65.00
2023-10-27T01:14:18.791Z,65.64
2023-10-27T01:17:21.202Z,65.22
2023-10-27T01:20:23.776Z,65.41
2023-10-27T01:23:27.097Z,65.37
2023-10-27T01:26:29.856Z,65.40
2023-10-27T01:29:32.386Z,65.42
2023-10-27T01:32:35.183Z,65.46
2023-10-27T01:35:37.573Z,65.34
2023-10-27T01:38:39.975Z,65.58
2023-10-27T01:41:43.159Z,65.46
2023-10-27T01:44:45.563Z,65.19
2023-10-27T01:47:48.199Z,65.39
2023-10-27T01:50:50.761Z,65.56
2023-10-27T01:53:53.173Z,64.92
2023-10-27T01:56:55.604Z,65.29
2023-10-27T01:59:57.969Z,65.40
2023-10-27T02:03:00.436Z,65.66
2023-10-27T02:06:03.796Z,65.48
2023-10-27T02:09:06.222Z,65.71
2023-10-27T02:12:11.295Z,65.44
2023-10-27T02:15:13.812Z,65.46
2023-10-27T02:18:16.194Z,65.70
2023-10-27T02:21:19.664Z,65.29
2023-10-27T02:24:22.083Z,65.47
2023-10-27T02:27:24.514Z,65.86
2023-10-27T02:30:26.892Z,65.19
2023-10-27T02:33:29.280Z,65.35
2023-10-27T02:36:31.672Z,65.45
2023-10-27T02:39:34.069Z,65.26
2023-10-27T02:42:39.351Z,65.16
2023-10-27T02:45:41.771Z,65.35
2023-10-27T02:48:44.239Z,65.27
2023-10-27T02:51:46.631Z,65.47
2023-10-27T02:54:49.035Z,65.38
2023-10-27T02:57:51.405Z,65.44
2023-10-27T03:00:53.911Z,65.38
2023-10-27T03:03:56.313Z,65.62
2023-10-27T03:06:58.757Z,65.18
2023-10-27T03:10:03.826Z,65.34
2023-10-27T03:13:09.623Z,65.28
2023-10-27T03:16:12.248Z,66.32
2023-10-27T03:19:14.758Z,65.89
2023-10-27T03:22:18.534Z,65.79
2023-10-27T03:25:21.224Z,65.23
2023-10-27T03:28:23.812Z,65.26
2023-10-27T03:31:27.187Z,64.65
2023-10-27T03:34:29.705Z,64.26
2023-10-27T03:37:32.182Z,63.92
2023-10-27T03:40:34.655Z,63.47
2023-10-27T03:43:38.315Z,62.97
2023-10-27T03:46:40.717Z,62.71
2023-10-27T03:49:43.256Z,62.13
2023-10-27T03:52:45.779Z,61.59
2023-10-27T03:55:54.656Z,61.45
2023-10-27T03:58:57.124Z,61.04
2023-10-27T04:02:00.009Z,60.62
2023-10-27T04:05:02.516Z,60.19
2023-10-27T04:08:08.052Z,60.05
2023-10-27T04:11:10.396Z,59.26
2023-10-27T04:14:12.837Z,59.30
2023-10-27T04:17:15.411Z,58.63
2023-10-27T04:20:17.883Z,59.18
2023-10-27T04:23:20.512Z,58.83
2023-10-27T04:26:23.039Z,59.30
2023-10-27T04:29:25.429Z,59.23
2023-10-27T04:32:27.895Z,59.35
2023-10-27T04:35:30.313Z,59.10
2023-10-27T04:38:33.138Z,59.43
2023-10-27T04:41:35.524Z,59.78
2023-10-27T04:44:37.930Z,59.73
2023-10-27T04:47:40.401Z,59.85
2023-10-27T04:50:43.048Z,60.09
2023-10-27T04:53:45.441Z,60.05
2023-10-27T04:56:48.531Z,60.16
2023-10-27T04:59:51.024Z,60.24
2023-10-27T05:02:54.743Z,60.53
2023-10-27T05:06:10.163Z,60.58
2023-10-27T05:09:13.988Z,60.82
2023-10-27T05:12:18.263Z,60.72
2023-10-27T05:15:20.755Z,60.87
2023-10-27T05:18:23.535Z,60.72
2023-10-27T05:21:29.185Z,60.97
2023-10-27T05:24:33.140Z,61.26
2023-10-27T05:27:35.583Z,61.24
2023-10-27T05:30:38.934Z,61.17
2023-10-27T05:33:41.464Z,61.50
2023-10-27T05:36:43.955Z,61.88
2023-10-27T05:39:46.604Z,62.23
2023-10-27T05:42:49.138Z,62.83
2023-10-27T05:45:51.715Z,63.34
2023-10-27T05:48:54.220Z,63.56
2023-10-27T05:51:56.819Z,63.46
2023-10-27T05:54:59.277Z,63.85
2023-10-27T05:58:01.815Z,63.69
2023-10-27T06:01:04.816Z,64.53
2023-10-27T06:04:07.351Z,64.48
2023-10-27T06:07:12.716Z,64.89
2023-10-27T06:10:16.075Z,64.67
2023-10-27T06:13:22.508Z,64.62
2023-10-27T06:16:40.381Z,64.23
2023-10-27T06:19:46.132Z,64.72
2023-10-27T06:22:51.421Z,64.49
2023-10-27T06:26:28.714Z,64.77
2023-10-27T06:29:42.180Z,64.56
2023-10-27T06:32:44.768Z,64.58
2023-10-27T06:35:48.852Z,65.00
2023-10-27T06:38:53.124Z,64.99
2023-10-27T06:41:55.593Z,65.16
2023-10-27T06:44:58.097Z,65.23
2023-10-27T06:48:00.613Z,65.15
2023-10-27T06:51:03.174Z,65.10
2023-10-27T06:54:08.070Z,65.16
2023-10-27T06:57:11.633Z,65.66
2023-10-27T07:00:14.688Z,65.61
2023-10-27T07:03:30.806Z,65.27
2023-10-27T07:06:34.408Z,65.82
2023-10-27T07:09:37.123Z,66.07
2023-10-27T07:12:39.689Z,66.26
2023-10-27T07:15:42.184Z,66.10
2023-10-27T07:18:44.672Z,66.19
2023-10-27T07:21:47.215Z,65.94
2023-10-27T07:24:49.950Z,66.30
2023-10-27T07:27:52.382Z,66.47
2023-10-27T07:30:57.730Z,66.17
2023-10-27T07:34:00.474Z,66.43
2023-10-27T07:37:05.404Z,66.28
2023-10-27T07:40:08.533Z,65.53
2023-10-27T07:43:11.502Z,65.95
2023-10-27T07:46:13.974Z,67.01
2023-10-27T07:49:16.538Z,66.91
2023-10-27T07:52:18.969Z,67.44
2023-10-27T07:55:21.485Z,67.33
2023-10-27T07:58:26.504Z,67.59
2023-10-27T08:01:29.126Z,67.51
2023-10-27T08:04:34.223Z,67.60
2023-10-27T08:07:38.081Z,67.54
2023-10-27T08:10:40.993Z,67.62
2023-10-27T08:13:43.586Z,67.17
2023-10-27T08:16:46.589Z,66.66
2023-10-27T08:19:49.348Z,66.43
2023-10-27T08:22:51.942Z,65.95
2023-10-27T08:25:54.615Z,65.34
2023-10-27T08:28:57.029Z,64.63
2023-10-27T08:31:59.683Z,64.59
2023-10-27T08:35:02.597Z,63.87
2023-10-27T08:38:05.039Z,63.63
2023-10-27T08:41:08.896Z,63.29
2023-10-27T08:44:25.024Z,62.63
2023-10-27T08:47:32.147Z,62.34
2023-10-27T08:50:58.604Z,61.83
2023-10-27T08:54:11.811Z,61.50
2023-10-27T08:57:15.639Z,61.19
2023-10-27T09:00:18.282Z,60.95
2023-10-27T09:03:20.822Z,60.27
2023-10-27T09:06:23.373Z,60.33
2023-10-27T09:09:26.487Z,60.15
2023-10-27T09:12:32.263Z,60.29
2023-10-27T09:15:43.299Z,60.23
2023-10-27T09:18:45.836Z,60.00
2023-10-27T09:21:48.625Z,60.18
2023-10-27T09:24:51.354Z,60.01
2023-10-27T09:27:57.755Z,59.98
2023-10-27T09:31:02.153Z,60.09
2023-10-27T09:34:21.233Z,60.47
2023-10-27T09:37:23.802Z,60.41
2023-10-27T09:40:26.330Z,60.54
2023-10-27T09:43:31.711Z,60.81
2023-10-27T09:46:35.346Z,60.79
2023-10-27T09:49:39.932Z,60.83
2023-10-27T09:52:45.989Z,61.05
2023-10-27T09:55:49.194Z,61.37
2023-10-27T09:58:52.819Z,61.55
2023-10-27T10:01:57.218Z,61.65
2023-10-27T10:05:04.473Z,61.90
2023-10-27T10:08:09.816Z,62.03
2023-10-27T10:11:19.391Z,61.89
2023-10-27T10:14:40.851Z,62.14
2023-10-27T10:17:43.468Z,62.38
2023-10-27T10:20:48.982Z,62.56
2023-10-27T10:23:51.714Z,62.59
2023-10-27T10:27:08.493Z,62.84
2023-10-27T10:30:21.758Z,62.69
2023-10-27T10:33:26.394Z,62.72
2023-10-27T10:36:28.997Z,62.70
2023-10-27T10:40:09.681Z,62.73
2023-10-27T10:43:48.915Z,62.66
2023-10-27T10:46:51.838Z,62.49
2023-10-27T10:49:54.374Z,62.51
2023-10-27T10:53:20.869Z,62.75
2023-10-27T10:56:24.221Z,62.34
2023-10-27T10:59:26.681Z,62.49
2023-10-27T11:02:29.234Z,62.36
2023-10-27T11:05:32.114Z,62.11
2023-10-27T11:08:36.985Z,62.03
2023-10-27T11:11:47.558Z,61.59
2023-10-27T11:14:50.727Z,61.52
2023-10-27T11:17:55.665Z,60.80
2023-10-27T11:20:58.730Z,60.73
2023-10-27T11:24:07.706Z,60.73
2023-10-27T11:27:10.168Z,60.34
2023-10-27T11:30:13.004Z,60.13
2023-10-27T11:33:15.456Z,60.11
2023-10-27T11:36:17.865Z,60.37
2023-10-27T11:39:21.725Z,60.54
2023-10-27T11:42:24.111Z,60.89
2023-10-27T11:45:26.494Z,61.16
2023-10-27T11:48:28.967Z,60.73
2023-10-27T11:51:31.831Z,60.89
2023-10-27T11:54:34.442Z,60.59
2023-10-27T11:57:37.336Z,61.24
2023-10-27T12:00:39.760Z,61.43
2023-10-27T12:03:42.192Z,61.34
2023-10-27T12:06:44.999Z,61.36
2023-10-27T12:09:47.545Z,61.33
2023-10-27T12:12:51.456Z,61.51
2023-10-27T12:15:54.257Z,61.96
2023-10-27T12:18:57.672Z,61.89
2023-10-27T12:22:00.153Z,62.30
2023-10-27T12:25:02.633Z,61.31
2023-10-27T12:28:05.688Z,61.20
2023-10-27T12:31:08.119Z,61.06
2023-10-27T12:34:11.981Z,61.47
2023-10-27T12:37:14.759Z,61.67
2023-10-27T12:40:17.338Z,61.79
2023-10-27T12:43:20.826Z,62.04
2023-10-27T12:46:24.201Z,62.17
2023-10-27T12:49:29.404Z,62.25
2023-10-27T12:52:32.111Z,61.85
2023-10-27T12:55:36.520Z,62.01
2023-10-27T12:58:39.635Z,61.10
2023-10-27T13:01:42.437Z,61.35
2023-10-27T13:04:45.103Z,61.33
2023-10-27T13:07:47.722Z,61.52
2023-10-27T13:10:50.130Z,62.23
2023-10-27T13:13:52.918Z,62.42
2023-10-27T13:16:55.538Z,62.91
2023-10-27T13:19:59.090Z,62.61
2023-10-27T13:23:02.894Z,62.99
2023-10-27T13:26:05.513Z,62.61
2023-10-27T13:29:07.903Z,63.24
2023-10-27T13:32:10.334Z,63.33
2023-10-27T13:35:12.873Z,63.27
2023-10-27T13:38:18.331Z,63.65
2023-10-27T13:41:20.906Z,63.32
2023-10-27T13:44:23.960Z,63.32
2023-10-27T13:47:29.243Z,63.54
2023-10-27T13:50:31.810Z,63.51
2023-10-27T13:53:34.191Z,62.88
2023-10-27T13:56:37.118Z,62.67
2023-10-27T13:59:41.380Z,62.86
2023-10-27T14:02:44.418Z,62.56
2023-10-27T14:05:50.517Z,63.40
2023-10-27T14:08:53.377Z,63.15
2023-10-27T14:11:57.561Z,63.10
2023-10-27T14:14:59.946Z,63.62
2023-10-27T14:18:07.146Z,63.65
2023-10-27T14:21:12.399Z,63.11
2023-10-27T14:24:14.877Z,63.19
2023-10-27T14:27:34.656Z,64.11
2023-10-27T14:30:40.561Z,64.28
2023-10-27T14:33:44.042Z,64.29
2023-10-27T14:36:46.691Z,64.33
2023-10-27T14:39:49.489Z,64.51
2023-10-27T14:42:52.010Z,65.01
2023-10-27T14:45:59.469Z,64.27
2023-10-27T14:49:01.986Z,63.99
2023-10-27T14:52:04.801Z,64.17
2023-10-27T14:55:07.508Z,64.86
2023-10-27T14:58:11.182Z,64.66
2023-10-27T15:01:16.381Z,64.47
2023-10-27T15:04:18.799Z,64.84
2023-10-27T15:07:21.915Z,65.33
2023-10-27T15:10:24.551Z,64.95
2023-10-27T15:13:29.448Z,63.68
2023-10-27T15:16:36.674Z,64.39
2023-10-27T15:19:41.107Z,65.20
2023-10-27T15:22:43.611Z,64.89
2023-10-27T15:25:48.323Z,65.19
2023-10-27T15:28:51.321Z,64.55
2023-10-27T15:31:54.668Z,65.25
2023-10-27T15:34:57.608Z,65.18
2023-10-27T15:38:00.078Z,64.72
2023-10-27T15:41:05.021Z,64.88
2023-10-27T15:44:08.142Z,64.87
2023-10-27T15:47:11.188Z,65.46
2023-10-27T15:50:13.668Z,64.74
2023-10-27T15:53:16.056Z,65.35
2023-10-27T15:56:21.650Z,64.69
2023-10-27T15:59:27.821Z,64.07
2023-10-27T16:02:30.234Z,65.65
2023-10-27T16:05:35.740Z,65.17
2023-10-27T16:08:38.198Z,64.44
2023-10-27T16:11:40.816Z,64.72
2023-10-27T16:14:43.194Z,64.85
2023-10-27T16:17:46.008Z,64.59
2023-10-27T16:20:48.478Z,64.86
2023-10-27T16:23:50.876Z,64.86
2023-10-27T16:26:53.274Z,65.16
2023-10-27T16:29:55.625Z,65.41
2023-10-27T16:32:59.413Z,65.21
2023-10-27T16:36:02.760Z,65.47
2023-10-27T16:39:05.708Z,65.98
2023-10-27T16:42:08.504Z,64.23
2023-10-27T16:45:13.704Z,64.56
2023-10-27T16:48:17.861Z,64.98
2023-10-27T16:51:20.454Z,63.68
2023-10-27T16:54:23.323Z,65.11
2023-10-27T16:57:27.608Z,63.98
2023-10-27T17:00:31.225Z,65.92
2023-10-27T17:03:37.083Z,64.10
2023-10-27T17:06:39.587Z,63.92
2023-10-27T17:09:42.106Z,64.11
2023-10-27T17:12:45.204Z,65.60
2023-10-27T17:15:47.676Z,64.98
2023-10-27T17:18:50.089Z,65.57
2023-10-27T17:21:52.460Z,64.56
2023-10-27T17:24:58.120Z,63.64
2023-10-27T17:28:01.335Z,65.41
2023-10-27T17:31:05.149Z,65.80
2023-10-27T17:34:07.646Z,65.19
2023-10-27T17:37:10.957Z,64.77
2023-10-27T17:40:14.202Z,65.23
2023-10-27T17:43:17.323Z,64.43
2023-10-27T17:46:23.760Z,65.38
2023-10-27T17:49:27.829Z,64.98
2023-10-27T17:52:30.359Z,65.57
2023-10-27T17:55:34.110Z,65.47
2023-10-27T17:58:37.488Z,64.95
2023-10-27T18:01:39.915Z,65.38
2023-10-27T18:04:42.466Z,65.85
2023-10-27T18:07:48.408Z,66.15
2023-10-27T18:10:54.277Z,65.90
2023-10-27T18:13:58.115Z,66.54
2023-10-27T18:17:02.043Z,66.28
2023-10-27T18:20:07.720Z,65.63
2023-10-27T18:23:11.075Z,66.41
2023-10-27T18:26:21.424Z,66.56
2023-10-27T18:29:23.801Z,66.13
2023-10-27T18:32:26.266Z,66.29
2023-10-27T18:35:32.126Z,66.21
2023-10-27T18:38:34.636Z,66.33
2023-10-27T18:41:38.862Z,65.43
2023-10-27T18:44:41.659Z,66.17
2023-10-27T18:47:44.913Z,65.85
2023-10-27T18:50:54.456Z,65.32
2023-10-27T18:53:56.826Z,66.00
2023-10-27T18:56:59.695Z,65.72
2023-10-27T19:00:05.820Z,65.96
2023-10-27T19:03:09.408Z,65.77
2023-10-27T19:06:13.521Z,66.23
2023-10-27T19:09:16.216Z,66.17
2023-10-27T19:12:19.012Z,66.29
2023-10-27T19:15:23.194Z,65.85
2023-10-27T19:18:27.652Z,66.52
2023-10-27T19:21:30.138Z,66.34
2023-10-27T19:24:32.588Z,66.03
2023-10-27T19:27:38.561Z,64.82
2023-10-27T19:30:48.953Z,65.75
2023-10-27T19:33:51.555Z,65.60
2023-10-27T19:36:54.125Z,66.20
2023-10-27T19:39:57.400Z,65.29
2023-10-27T19:43:00.025Z,65.90
2023-10-27T19:46:07.834Z,66.36
2023-10-27T19:49:14.168Z,66.16
2023-10-27T19:52:17.215Z,66.61
2023-10-27T19:55:19.748Z,66.10
2023-10-27T19:58:22.196Z,65.90
2023-10-27T20:01:27.014Z,65.55
2023-10-27T20:04:30.562Z,65.80
2023-10-27T20:07:33.178Z,66.45
2023-10-27T20:10:37.206Z,66.07
2023-10-27T20:13:45.219Z,66.47
2023-10-27T20:16:47.759Z,65.46
2023-10-27T20:19:50.256Z,65.58
2023-10-27T20:22:53.008Z,66.00
2023-10-27T20:25:55.952Z,65.85
2023-10-27T20:28:59.769Z,66.47
2023-10-27T20:32:02.207Z,66.52
2023-10-27T20:35:05.941Z,65.59
2023-10-27T20:38:08.773Z,66.44
2023-10-27T20:41:11.141Z,66.12
2023-10-27T20:44:13.530Z,66.20
2023-10-27T20:47:15.958Z,66.24
2023-10-27T20:50:20.181Z,65.67
2023-10-27T20:53:23.616Z,66.64
2023-10-27T20:56:26.148Z,66.72
2023-10-27T20:59:28.740Z,65.06
2023-10-27T21:02:31.343Z,65.88
2023-10-27T21:05:34.927Z,65.68
2023-10-27T21:08:42.516Z,66.78
2023-10-27T21:11:45.165Z,66.11
2023-10-27T21:14:47.696Z,65.77
2023-10-27T21:17:50.160Z,66.30
2023-10-27T21:20:52.528Z,65.32
2023-10-27T21:23:54.900Z,66.02
2023-10-27T21:26:57.292Z,66.12
2023-10-27T21:29:59.704Z,66.08
2023-10-27T21:33:02.467Z,66.28
2023-10-27T21:36:09.416Z,65.25
2023-10-27T21:39:11.899Z,66.18
2023-10-27T21:42:14.274Z,66.40
2023-10-27T21:45:16.712Z,66.39
2023-10-27T21:48:21.392Z,66.14
2023-10-27T21:51:23.944Z,66.57
2023-10-27T21:54:26.342Z,65.69
2023-10-27T21:57:28.717Z,65.59
2023-10-27T22:00:40.805Z,66.21
2023-10-27T22:03:44.120Z,65.85
2023-10-27T22:06:47.838Z,65.33
2023-10-27T22:09:50.341Z,66.36
2023-10-27T22:12:52.807Z,65.74
2023-10-27T22:15:55.608Z,66.38
2023-10-27T22:18:58.061Z,65.56
2023-10-27T22:22:00.449Z,66.27
2023-10-27T22:25:03.794Z,64.34
2023-10-27T22:28:16.323Z,65.54
2023-10-27T22:31:19.079Z,65.98
2023-10-27T22:34:21.645Z,66.13
2023-10-27T22:37:24.097Z,66.47
2023-10-27T22:40:30.274Z,66.23
2023-10-27T22:43:32.646Z,65.68
2023-10-27T22:46:35.942Z,65.11
2023-10-27T22:49:38.876Z,64.95
2023-10-27T22:52:41.512Z,65.63
2023-10-27T22:55:47.607Z,65.03
2023-10-27T22:58:50.174Z,65.20
2023-10-27T23:01:52.599Z,64.80
2023-10-27T23:04:56.280Z,64.62
2023-10-27T23:07:59.145Z,65.55
2023-10-27T23:11:09.768Z,64.90
2023-10-27T23:14:13.136Z,65.96
2023-10-27T23:17:15.617Z,65.48
2023-10-27T23:20:18.575Z,66.20
2023-10-27T23:23:20.974Z,65.63
2023-10-27T23:26:23.530Z,65.46
2023-10-27T23:29:26.654Z,64.48
2023-10-27T23:32:29.020Z,66.07
2023-10-27T23:35:32.935Z,66.22
2023-10-27T23:38:39.678Z,65.19
2023-10-27T23:41:42.102Z,65.75
2023-10-27T23:44:45.750Z,65.92
2023-10-27T23:47:48.224Z,65.24
2023-10-27T23:50:50.899Z,66.11
2023-10-27T23:53:54.192Z,65.57
2023-10-27T23:56:56.569Z,66.12
2023-10-27T23:59:58.952Z,66.14
